sensor_id;sensor_type;location;lat;lon;timestamp;temperature;humidity
57709;SHT35;42558;52.388;13.390;2022-09-21T00:01:26;7.42;86.16
57709;SHT35;42558;52.388;13.390;2022-09-21T00:03:57;7.38;86.14
57709;SHT35;42558;52.388;13.390;2022-09-21T00:06:28;7.37;86.30
57709;SHT35;42558;52.388;13.390;2022-09-21T00:08:58;7.38;86.29
57709;SHT35;42558;52.388;13.390;2022-09-21T00:11:26;7.39;86.35
57709;SHT35;42558;52.388;13.390;2022-09-21T00:14:14;7.39;86.24
57709;SHT35;42558;52.388;13.390;2022-09-21T00:16:41;7.37;85.95
57709;SHT35;42558;52.388;13.390;2022-09-21T00:19:09;7.34;85.98
57709;SHT35;42558;52.388;13.390;2022-09-21T00:21:36;7.35;86.34
57709;SHT35;42558;52.388;13.390;2022-09-21T00:24:05;7.37;86.35
57709;SHT35;42558;52.388;13.390;2022-09-21T00:26:33;7.39;86.09
57709;SHT35;42558;52.388;13.390;2022-09-21T00:29:00;7.35;85.69
57709;SHT35;42558;52.388;13.390;2022-09-21T00:31:29;7.33;85.73
57709;SHT35;42558;52.388;13.390;2022-09-21T00:33:57;7.30;85.80
57709;SHT35;42558;52.388;13.390;2022-09-21T00:36:26;7.28;85.94
57709;SHT35;42558;52.388;13.390;2022-09-21T00:38:58;7.19;85.76
57709;SHT35;42558;52.388;13.390;2022-09-21T00:41:28;7.13;86.15
57709;SHT35;42558;52.388;13.390;2022-09-21T00:47:00;7.05;86.77
57709;SHT35;42558;52.388;13.390;2022-09-21T00:49:35;7.04;87.22
57709;SHT35;42558;52.388;13.390;2022-09-21T00:52:04;7.03;87.31
57709;SHT35;42558;52.388;13.390;2022-09-21T00:54:35;6.99;87.17
57709;SHT35;42558;52.388;13.390;2022-09-21T00:57:12;6.98;87.42
57709;SHT35;42558;52.388;13.390;2022-09-21T00:59:42;7.04;87.66
57709;SHT35;42558;52.388;13.390;2022-09-21T01:02:11;7.06;87.52
57709;SHT35;42558;52.388;13.390;2022-09-21T01:04:41;7.09;87.34
57709;SHT35;42558;52.388;13.390;2022-09-21T01:07:10;7.04;86.75
57709;SHT35;42558;52.388;13.390;2022-09-21T01:09:44;6.95;86.56
57709;SHT35;42558;52.388;13.390;2022-09-21T01:21:54;6.84;86.90
57709;SHT35;42558;52.388;13.390;2022-09-21T01:27:43;6.91;87.20
57709;SHT35;42558;52.388;13.390;2022-09-21T01:30:29;6.89;86.81
57709;SHT35;42558;52.388;13.390;2022-09-21T01:33:03;6.89;86.85
57709;SHT35;42558;52.388;13.390;2022-09-21T01:35:46;6.91;86.88
57709;SHT35;42558;52.388;13.390;2022-09-21T01:38:23;6.89;86.83
57709;SHT35;42558;52.388;13.390;2022-09-21T01:40:57;6.86;86.99
57709;SHT35;42558;52.388;13.390;2022-09-21T01:43:36;6.86;87.16
57709;SHT35;42558;52.388;13.390;2022-09-21T01:46:11;6.87;87.28
57709;SHT35;42558;52.388;13.390;2022-09-21T01:48:44;6.80;86.82
57709;SHT35;42558;52.388;13.390;2022-09-21T01:51:17;6.75;87.14
57709;SHT35;42558;52.388;13.390;2022-09-21T01:53:51;6.77;87.25
57709;SHT35;42558;52.388;13.390;2022-09-21T01:56:29;6.75;87.09
57709;SHT35;42558;52.388;13.390;2022-09-21T01:59:17;6.74;87.11
57709;SHT35;42558;52.388;13.390;2022-09-21T02:02:02;6.76;87.09
57709;SHT35;42558;52.388;13.390;2022-09-21T02:04:39;6.68;86.74
57709;SHT35;42558;52.388;13.390;2022-09-21T02:07:06;6.68;87.14
57709;SHT35;42558;52.388;13.390;2022-09-21T02:09:37;6.67;87.13
57709;SHT35;42558;52.388;13.390;2022-09-21T02:12:05;6.69;87.19
57709;SHT35;42558;52.388;13.390;2022-09-21T02:14:44;6.72;87.03
57709;SHT35;42558;52.388;13.390;2022-09-21T02:17:20;6.72;87.04
57709;SHT35;42558;52.388;13.390;2022-09-21T02:20:23;6.66;86.82
57709;SHT35;42558;52.388;13.390;2022-09-21T02:26:08;6.64;87.28
57709;SHT35;42558;52.388;13.390;2022-09-21T02:28:46;6.58;87.10
57709;SHT35;42558;52.388;13.390;2022-09-21T02:31:31;6.57;87.31
57709;SHT35;42558;52.388;13.390;2022-09-21T02:34:27;6.63;87.24
57709;SHT35;42558;52.388;13.390;2022-09-21T02:43:00;6.45;86.66
57709;SHT35;42558;52.388;13.390;2022-09-21T02:45:41;6.37;86.90
57709;SHT35;42558;52.388;13.390;2022-09-21T02:48:20;6.35;87.31
57709;SHT35;42558;52.388;13.390;2022-09-21T02:50:57;6.30;87.23
57709;SHT35;42558;52.388;13.390;2022-09-21T02:53:35;6.22;87.37
57709;SHT35;42558;52.388;13.390;2022-09-21T02:56:04;6.17;87.66
57709;SHT35;42558;52.388;13.390;2022-09-21T02:58:35;6.18;88.10
57709;SHT35;42558;52.388;13.390;2022-09-21T03:01:11;6.16;88.16
57709;SHT35;42558;52.388;13.390;2022-09-21T03:03:41;6.20;88.58
57709;SHT35;42558;52.388;13.390;2022-09-21T03:06:08;6.25;88.69
57709;SHT35;42558;52.388;13.390;2022-09-21T03:08:35;6.29;88.56
57709;SHT35;42558;52.388;13.390;2022-09-21T03:11:01;6.31;88.33
57709;SHT35;42558;52.388;13.390;2022-09-21T03:13:28;6.33;88.21
57709;SHT35;42558;52.388;13.390;2022-09-21T03:15:59;6.32;88.07
57709;SHT35;42558;52.388;13.390;2022-09-21T03:18:29;6.32;87.96
57709;SHT35;42558;52.388;13.390;2022-09-21T03:20:57;6.32;87.80
57709;SHT35;42558;52.388;13.390;2022-09-21T03:23:24;6.31;87.54
57709;SHT35;42558;52.388;13.390;2022-09-21T03:25:52;6.30;87.58
57709;SHT35;42558;52.388;13.390;2022-09-21T03:28:20;6.32;87.62
57709;SHT35;42558;52.388;13.390;2022-09-21T03:30:48;6.33;87.61
57709;SHT35;42558;52.388;13.390;2022-09-21T03:33:17;6.32;87.48
57709;SHT35;42558;52.388;13.390;2022-09-21T03:35:46;6.29;87.24
57709;SHT35;42558;52.388;13.390;2022-09-21T03:38:14;6.25;87.29
57709;SHT35;42558;52.388;13.390;2022-09-21T03:40:45;6.15;87.41
57709;SHT35;42558;52.388;13.390;2022-09-21T03:43:14;6.06;87.72
57709;SHT35;42558;52.388;13.390;2022-09-21T03:45:42;6.01;88.06
57709;SHT35;42558;52.388;13.390;2022-09-21T03:48:11;6.00;88.36
57709;SHT35;42558;52.388;13.390;2022-09-21T03:50:39;6.00;88.58
57709;SHT35;42558;52.388;13.390;2022-09-21T03:53:06;5.94;88.50
57709;SHT35;42558;52.388;13.390;2022-09-21T03:55:34;5.96;88.73
57709;SHT35;42558;52.388;13.390;2022-09-21T03:58:02;5.97;88.76
57709;SHT35;42558;52.388;13.390;2022-09-21T04:00:29;5.94;88.59
57709;SHT35;42558;52.388;13.390;2022-09-21T04:02:56;5.94;88.65
57709;SHT35;42558;52.388;13.390;2022-09-21T04:05:23;5.94;88.67
57709;SHT35;42558;52.388;13.390;2022-09-21T04:07:52;5.91;88.54
57709;SHT35;42558;52.388;13.390;2022-09-21T04:10:21;5.87;88.35
57709;SHT35;42558;52.388;13.390;2022-09-21T04:12:58;5.88;88.37
57709;SHT35;42558;52.388;13.390;2022-09-21T04:15:27;5.90;88.52
57709;SHT35;42558;52.388;13.390;2022-09-21T04:17:55;5.88;88.19
57709;SHT35;42558;52.388;13.390;2022-09-21T04:20:22;5.82;88.03
57709;SHT35;42558;52.388;13.390;2022-09-21T04:22:49;5.84;88.17
57709;SHT35;42558;52.388;13.390;2022-09-21T04:25:16;5.83;88.06
57709;SHT35;42558;52.388;13.390;2022-09-21T04:27:44;5.86;88.13
57709;SHT35;42558;52.388;13.390;2022-09-21T04:30:12;5.87;87.98
57709;SHT35;42558;52.388;13.390;2022-09-21T04:32:41;5.86;87.79
57709;SHT35;42558;52.388;13.390;2022-09-21T04:35:08;5.80;87.57
57709;SHT35;42558;52.388;13.390;2022-09-21T04:37:36;5.74;87.48
57709;SHT35;42558;52.388;13.390;2022-09-21T04:40:03;5.73;87.69
57709;SHT35;42558;52.388;13.390;2022-09-21T04:42:31;5.72;87.75
57709;SHT35;42558;52.388;13.390;2022-09-21T04:44:58;5.68;87.74
57709;SHT35;42558;52.388;13.390;2022-09-21T04:47:27;5.69;87.92
57709;SHT35;42558;52.388;13.390;2022-09-21T04:49:56;5.69;88.05
57709;SHT35;42558;52.388;13.390;2022-09-21T04:52:23;5.70;88.11
57709;SHT35;42558;52.388;13.390;2022-09-21T04:54:50;5.68;88.10
57709;SHT35;42558;52.388;13.390;2022-09-21T04:57:17;5.69;88.25
57709;SHT35;42558;52.388;13.390;2022-09-21T04:59:44;5.70;88.43
57709;SHT35;42558;52.388;13.390;2022-09-21T05:02:11;5.70;88.41
57709;SHT35;42558;52.388;13.390;2022-09-21T05:04:38;5.69;88.41
57709;SHT35;42558;52.388;13.390;2022-09-21T05:07:04;5.68;88.54
57709;SHT35;42558;52.388;13.390;2022-09-21T05:09:31;5.72;88.67
57709;SHT35;42558;52.388;13.390;2022-09-21T05:12:17;5.74;88.69
57709;SHT35;42558;52.388;13.390;2022-09-21T05:14:44;5.76;88.60
57709;SHT35;42558;52.388;13.390;2022-09-21T05:17:11;5.75;88.51
57709;SHT35;42558;52.388;13.390;2022-09-21T05:19:39;5.77;88.74
57709;SHT35;42558;52.388;13.390;2022-09-21T05:22:06;5.81;88.90
57709;SHT35;42558;52.388;13.390;2022-09-21T05:24:33;5.83;88.84
57709;SHT35;42558;52.388;13.390;2022-09-21T05:27:00;5.84;88.89
57709;SHT35;42558;52.388;13.390;2022-09-21T05:29:27;5.87;89.00
57709;SHT35;42558;52.388;13.390;2022-09-21T05:31:56;5.90;89.17
57709;SHT35;42558;52.388;13.390;2022-09-21T05:34:42;5.92;89.10
57709;SHT35;42558;52.388;13.390;2022-09-21T05:40:24;5.99;89.10
57709;SHT35;42558;52.388;13.390;2022-09-21T05:42:52;6.03;89.19
57709;SHT35;42558;52.388;13.390;2022-09-21T05:45:19;6.05;89.18
57709;SHT35;42558;52.388;13.390;2022-09-21T05:47:55;6.07;89.16
57709;SHT35;42558;52.388;13.390;2022-09-21T05:51:04;6.11;89.15
57709;SHT35;42558;52.388;13.390;2022-09-21T06:00:33;6.27;89.22
57709;SHT35;42558;52.388;13.390;2022-09-21T06:03:39;6.38;89.51
57709;SHT35;42558;52.388;13.390;2022-09-21T06:06:08;6.50;89.78
57709;SHT35;42558;52.388;13.390;2022-09-21T06:08:35;6.60;89.93
57709;SHT35;42558;52.388;13.390;2022-09-21T06:11:02;6.70;90.06
57709;SHT35;42558;52.388;13.390;2022-09-21T06:13:29;6.85;90.18
57709;SHT35;42558;52.388;13.390;2022-09-21T06:15:55;6.96;90.17
57709;SHT35;42558;52.388;13.390;2022-09-21T06:18:23;7.16;90.37
57709;SHT35;42558;52.388;13.390;2022-09-21T06:20:50;7.43;90.74
57709;SHT35;42558;52.388;13.390;2022-09-21T06:23:17;7.54;90.79
57709;SHT35;42558;52.388;13.390;2022-09-21T06:25:44;7.67;90.86
57709;SHT35;42558;52.388;13.390;2022-09-21T06:28:23;7.82;90.91
57709;SHT35;42558;52.388;13.390;2022-09-21T06:30:51;8.10;91.16
57709;SHT35;42558;52.388;13.390;2022-09-21T06:33:20;8.52;91.41
57709;SHT35;42558;52.388;13.390;2022-09-21T06:35:54;8.87;91.43
57709;SHT35;42558;52.388;13.390;2022-09-21T06:38:23;9.19;91.25
57709;SHT35;42558;52.388;13.390;2022-09-21T06:40:52;9.18;90.55
57709;SHT35;42558;52.388;13.390;2022-09-21T06:43:19;9.11;90.30
57709;SHT35;42558;52.388;13.390;2022-09-21T06:45:52;9.15;90.39
57709;SHT35;42558;52.388;13.390;2022-09-21T06:48:24;9.24;90.35
57709;SHT35;42558;52.388;13.390;2022-09-21T06:50:59;9.32;90.34
57709;SHT35;42558;52.388;13.390;2022-09-21T06:53:29;9.32;90.11
57709;SHT35;42558;52.388;13.390;2022-09-21T06:56:06;9.24;89.86
57709;SHT35;42558;52.388;13.390;2022-09-21T06:58:35;9.21;89.90
57709;SHT35;42558;52.388;13.390;2022-09-21T07:01:07;9.18;89.90
57709;SHT35;42558;52.388;13.390;2022-09-21T07:03:37;9.25;90.09
57709;SHT35;42558;52.388;13.390;2022-09-21T07:06:07;9.30;90.14
57709;SHT35;42558;52.388;13.390;2022-09-21T07:08:37;9.34;90.10
57709;SHT35;42558;52.388;13.390;2022-09-21T07:11:25;9.40;90.17
57709;SHT35;42558;52.388;13.390;2022-09-21T07:13:53;9.50;90.22
57709;SHT35;42558;52.388;13.390;2022-09-21T07:16:21;9.58;90.20
57709;SHT35;42558;52.388;13.390;2022-09-21T07:18:48;9.67;90.18
57709;SHT35;42558;52.388;13.390;2022-09-21T07:21:15;9.79;90.26
57709;SHT35;42558;52.388;13.390;2022-09-21T07:23:42;9.91;90.29
57709;SHT35;42558;52.388;13.390;2022-09-21T07:26:10;10.00;90.22
57709;SHT35;42558;52.388;13.390;2022-09-21T07:28:39;10.11;90.28
57709;SHT35;42558;52.388;13.390;2022-09-21T07:31:07;10.25;90.39
57709;SHT35;42558;52.388;13.390;2022-09-21T07:33:39;10.37;90.38
57709;SHT35;42558;52.388;13.390;2022-09-21T07:36:07;10.45;90.21
57709;SHT35;42558;52.388;13.390;2022-09-21T07:38:41;10.51;90.10
57709;SHT35;42558;52.388;13.390;2022-09-21T07:41:10;10.61;90.14
57709;SHT35;42558;52.388;13.390;2022-09-21T07:43:39;10.67;89.99
57709;SHT35;42558;52.388;13.390;2022-09-21T07:46:07;10.80;89.97
57709;SHT35;42558;52.388;13.390;2022-09-21T07:48:38;10.85;89.75
57709;SHT35;42558;52.388;13.390;2022-09-21T07:51:07;10.93;89.53
57709;SHT35;42558;52.388;13.390;2022-09-21T07:53:38;10.98;89.30
57709;SHT35;42558;52.388;13.390;2022-09-21T07:56:09;11.02;89.00
57709;SHT35;42558;52.388;13.390;2022-09-21T07:58:42;11.08;88.77
57709;SHT35;42558;52.388;13.390;2022-09-21T08:01:28;11.17;88.56
57709;SHT35;42558;52.388;13.390;2022-09-21T08:03:56;11.40;88.61
57709;SHT35;42558;52.388;13.390;2022-09-21T08:06:25;11.53;88.31
57709;SHT35;42558;52.388;13.390;2022-09-21T08:08:55;11.66;88.23
57709;SHT35;42558;52.388;13.390;2022-09-21T08:11:24;11.77;87.90
57709;SHT35;42558;52.388;13.390;2022-09-21T08:13:56;11.78;87.12
57709;SHT35;42558;52.388;13.390;2022-09-21T08:16:25;11.86;86.94
57709;SHT35;42558;52.388;13.390;2022-09-21T08:18:55;11.82;86.58
57709;SHT35;42558;52.388;13.390;2022-09-21T08:21:22;11.91;86.74
57709;SHT35;42558;52.388;13.390;2022-09-21T08:23:49;11.90;86.35
57709;SHT35;42558;52.388;13.390;2022-09-21T08:26:17;11.91;86.24
57709;SHT35;42558;52.388;13.390;2022-09-21T08:28:46;12.01;86.22
57709;SHT35;42558;52.388;13.390;2022-09-21T08:31:17;12.27;86.28
57709;SHT35;42558;52.388;13.390;2022-09-21T08:33:47;12.49;85.64
57709;SHT35;42558;52.388;13.390;2022-09-21T08:36:17;12.50;85.21
57709;SHT35;42558;52.388;13.390;2022-09-21T08:38:45;12.51;85.03
57709;SHT35;42558;52.388;13.390;2022-09-21T08:41:17;12.48;84.49
57709;SHT35;42558;52.388;13.390;2022-09-21T08:43:59;12.53;84.12
57709;SHT35;42558;52.388;13.390;2022-09-21T08:46:37;12.74;84.70
57709;SHT35;42558;52.388;13.390;2022-09-21T08:49:13;12.83;84.13
57709;SHT35;42558;52.388;13.390;2022-09-21T08:52:11;12.77;83.82
57709;SHT35;42558;52.388;13.390;2022-09-21T08:57:44;12.99;83.38
57709;SHT35;42558;52.388;13.390;2022-09-21T09:00:15;13.05;83.56
57709;SHT35;42558;52.388;13.390;2022-09-21T09:08:31;13.07;82.82
57709;SHT35;42558;52.388;13.390;2022-09-21T09:17:41;13.37;82.07
57709;SHT35;42558;52.388;13.390;2022-09-21T09:20:30;13.59;82.03
57709;SHT35;42558;52.388;13.390;2022-09-21T09:23:21;13.77;81.17
57709;SHT35;42558;52.388;13.390;2022-09-21T09:25:53;13.75;80.36
57709;SHT35;42558;52.388;13.390;2022-09-21T09:28:37;13.94;80.58
57709;SHT35;42558;52.388;13.390;2022-09-21T09:31:22;14.37;80.73
57709;SHT35;42558;52.388;13.390;2022-09-21T09:36:51;14.52;77.95
57709;SHT35;42558;52.388;13.390;2022-09-21T09:39:25;14.70;78.19
57709;SHT35;42558;52.388;13.390;2022-09-21T09:48:24;15.86;74.54
57709;SHT35;42558;52.388;13.390;2022-09-21T09:51:02;15.76;73.99
57709;SHT35;42558;52.388;13.390;2022-09-21T09:53:29;15.63;73.78
57709;SHT35;42558;52.388;13.390;2022-09-21T09:55:57;15.60;74.37
57709;SHT35;42558;52.388;13.390;2022-09-21T10:04:30;15.66;73.70
57709;SHT35;42558;52.388;13.390;2022-09-21T10:07:00;16.03;73.97
57709;SHT35;42558;52.388;13.390;2022-09-21T10:09:28;15.97;71.09
57709;SHT35;42558;52.388;13.390;2022-09-21T10:11:59;15.58;71.45
57709;SHT35;42558;52.388;13.390;2022-09-21T10:14:43;15.64;71.55
57709;SHT35;42558;52.388;13.390;2022-09-21T10:17:16;16.13;71.87
57709;SHT35;42558;52.388;13.390;2022-09-21T10:19:45;16.42;69.34
57709;SHT35;42558;52.388;13.390;2022-09-21T10:22:17;16.76;70.03
57709;SHT35;42558;52.388;13.390;2022-09-21T10:24:47;17.14;68.16
57709;SHT35;42558;52.388;13.390;2022-09-21T10:27:23;16.83;68.56
57709;SHT35;42558;52.388;13.390;2022-09-21T10:29:59;16.83;67.36
57709;SHT35;42558;52.388;13.390;2022-09-21T10:32:52;16.23;67.17
57709;SHT35;42558;52.388;13.390;2022-09-21T10:35:22;16.36;68.25
57709;SHT35;42558;52.388;13.390;2022-09-21T10:38:10;16.96;66.38
57709;SHT35;42558;52.388;13.390;2022-09-21T10:40:48;17.17;63.21
57709;SHT35;42558;52.388;13.390;2022-09-21T10:43:22;17.12;63.33
57709;SHT35;42558;52.388;13.390;2022-09-21T10:46:08;17.51;61.76
57709;SHT35;42558;52.388;13.390;2022-09-21T10:48:34;17.42;61.34
57709;SHT35;42558;52.388;13.390;2022-09-21T10:51:02;17.15;61.40
57709;SHT35;42558;52.388;13.390;2022-09-21T10:53:30;16.86;63.72
57709;SHT35;42558;52.388;13.390;2022-09-21T10:56:22;16.53;63.97
57709;SHT35;42558;52.388;13.390;2022-09-21T11:01:57;16.41;66.26
57709;SHT35;42558;52.388;13.390;2022-09-21T11:04:35;16.48;65.73
57709;SHT35;42558;52.388;13.390;2022-09-21T11:07:21;16.40;64.13
57709;SHT35;42558;52.388;13.390;2022-09-21T11:12:50;16.00;63.97
57709;SHT35;42558;52.388;13.390;2022-09-21T11:25:20;16.56;61.26
57709;SHT35;42558;52.388;13.390;2022-09-21T11:30:52;16.40;59.15
57709;SHT35;42558;52.388;13.390;2022-09-21T11:51:26;16.15;66.41
57709;SHT35;42558;52.388;13.390;2022-09-21T11:54:35;16.60;66.07
57709;SHT35;42558;52.388;13.390;2022-09-21T11:57:18;16.89;64.29
57709;SHT35;42558;52.388;13.390;2022-09-21T12:06:09;16.45;64.07
57709;SHT35;42558;52.388;13.390;2022-09-21T12:08:50;16.84;61.17
57709;SHT35;42558;52.388;13.390;2022-09-21T12:12:00;16.70;61.30
57709;SHT35;42558;52.388;13.390;2022-09-21T12:14:38;16.36;61.58
57709;SHT35;42558;52.388;13.390;2022-09-21T12:17:17;16.04;60.83
57709;SHT35;42558;52.388;13.390;2022-09-21T12:20:09;15.87;61.26
57709;SHT35;42558;52.388;13.390;2022-09-21T12:22:46;15.92;61.40
57709;SHT35;42558;52.388;13.390;2022-09-21T12:25:24;16.28;60.94
57709;SHT35;42558;52.388;13.390;2022-09-21T12:28:17;16.60;60.05
57709;SHT35;42558;52.388;13.390;2022-09-21T12:30:50;16.77;58.65
57709;SHT35;42558;52.388;13.390;2022-09-21T12:33:40;16.60;58.19
57709;SHT35;42558;52.388;13.390;2022-09-21T12:36:17;16.50;60.90
57709;SHT35;42558;52.388;13.390;2022-09-21T12:38:59;16.25;61.58
57709;SHT35;42558;52.388;13.390;2022-09-21T12:41:41;16.17;63.14
57709;SHT35;42558;52.388;13.390;2022-09-21T12:44:21;16.09;62.91
57709;SHT35;42558;52.388;13.390;2022-09-21T12:47:19;16.06;62.75
57709;SHT35;42558;52.388;13.390;2022-09-21T12:49:54;15.99;62.37
57709;SHT35;42558;52.388;13.390;2022-09-21T12:52:30;16.06;63.85
57709;SHT35;42558;52.388;13.390;2022-09-21T12:55:01;16.11;63.23
57709;SHT35;42558;52.388;13.390;2022-09-21T12:57:56;16.08;63.69
57709;SHT35;42558;52.388;13.390;2022-09-21T13:01:07;15.93;63.80
57709;SHT35;42558;52.388;13.390;2022-09-21T13:09:03;16.48;62.40
57709;SHT35;42558;52.388;13.390;2022-09-21T13:11:35;16.67;61.50
57709;SHT35;42558;52.388;13.390;2022-09-21T13:14:48;16.84;60.73
57709;SHT35;42558;52.388;13.390;2022-09-21T13:17:38;16.93;60.65
57709;SHT35;42558;52.388;13.390;2022-09-21T13:20:14;16.90;60.22
57709;SHT35;42558;52.388;13.390;2022-09-21T13:22:45;16.99;61.15
57709;SHT35;42558;52.388;13.390;2022-09-21T13:25:24;16.93;61.35
57709;SHT35;42558;52.388;13.390;2022-09-21T13:30:42;16.90;60.92
57709;SHT35;42558;52.388;13.390;2022-09-21T13:38:26;16.48;60.32
57709;SHT35;42558;52.388;13.390;2022-09-21T13:41:03;16.35;60.50
57709;SHT35;42558;52.388;13.390;2022-09-21T13:54:28;16.04;61.15
57709;SHT35;42558;52.388;13.390;2022-09-21T13:57:18;16.17;60.86
57709;SHT35;42558;52.388;13.390;2022-09-21T14:05:29;16.96;57.25
57709;SHT35;42558;52.388;13.390;2022-09-21T14:10:52;17.06;56.99
57709;SHT35;42558;52.388;13.390;2022-09-21T14:13:27;17.16;57.21
57709;SHT35;42558;52.388;13.390;2022-09-21T14:19:00;16.75;58.09
57709;SHT35;42558;52.388;13.390;2022-09-21T14:29:57;15.78;61.61
57709;SHT35;42558;52.388;13.390;2022-09-21T14:32:44;15.56;62.36
57709;SHT35;42558;52.388;13.390;2022-09-21T14:35:19;15.49;62.91
57709;SHT35;42558;52.388;13.390;2022-09-21T14:37:55;15.41;63.70
57709;SHT35;42558;52.388;13.390;2022-09-21T14:40:29;15.35;64.80
57709;SHT35;42558;52.388;13.390;2022-09-21T14:43:08;15.30;65.14
57709;SHT35;42558;52.388;13.390;2022-09-21T14:51:48;15.68;65.00
57709;SHT35;42558;52.388;13.390;2022-09-21T14:54:54;16.05;64.10
57709;SHT35;42558;52.388;13.390;2022-09-21T14:57:43;16.07;63.81
57709;SHT35;42558;52.388;13.390;2022-09-21T15:00:53;16.43;60.86
57709;SHT35;42558;52.388;13.390;2022-09-21T15:06:23;16.88;57.70
57709;SHT35;42558;52.388;13.390;2022-09-21T15:18:44;17.61;56.77
57709;SHT35;42558;52.388;13.390;2022-09-21T15:23:52;17.17;56.61
57709;SHT35;42558;52.388;13.390;2022-09-21T15:26:21;16.89;56.32
57709;SHT35;42558;52.388;13.390;2022-09-21T15:29:02;16.68;56.86
57709;SHT35;42558;52.388;13.390;2022-09-21T15:31:36;16.61;57.57
57709;SHT35;42558;52.388;13.390;2022-09-21T15:34:08;16.57;58.42
57709;SHT35;42558;52.388;13.390;2022-09-21T15:36:38;16.43;57.94
57709;SHT35;42558;52.388;13.390;2022-09-21T15:42:34;16.26;58.19
57709;SHT35;42558;52.388;13.390;2022-09-21T15:44:49;16.21;59.19
57709;SHT35;42558;52.388;13.390;2022-09-21T15:47:36;16.43;59.26
57709;SHT35;42558;52.388;13.390;2022-09-21T15:50:04;16.22;58.96
57709;SHT35;42558;52.388;13.390;2022-09-21T15:52:37;15.98;59.89
57709;SHT35;42558;52.388;13.390;2022-09-21T15:55:17;15.76;60.71
57709;SHT35;42558;52.388;13.390;2022-09-21T15:57:47;15.60;60.82
57709;SHT35;42558;52.388;13.390;2022-09-21T16:00:19;15.59;61.57
57709;SHT35;42558;52.388;13.390;2022-09-21T16:02:50;15.59;64.38
57709;SHT35;42558;52.388;13.390;2022-09-21T16:05:32;15.47;63.13
57709;SHT35;42558;52.388;13.390;2022-09-21T16:08:20;15.38;63.14
57709;SHT35;42558;52.388;13.390;2022-09-21T16:11:13;15.26;63.44
57709;SHT35;42558;52.388;13.390;2022-09-21T16:13:59;15.17;65.40
57709;SHT35;42558;52.388;13.390;2022-09-21T16:19:41;14.77;68.43
57709;SHT35;42558;52.388;13.390;2022-09-21T16:22:39;14.68;69.43
57709;SHT35;42558;52.388;13.390;2022-09-21T16:25:21;14.58;69.70
57709;SHT35;42558;52.388;13.390;2022-09-21T16:28:21;14.43;70.12
57709;SHT35;42558;52.388;13.390;2022-09-21T16:30:55;14.36;70.02
57709;SHT35;42558;52.388;13.390;2022-09-21T16:33:41;14.22;70.74
57709;SHT35;42558;52.388;13.390;2022-09-21T16:38:57;14.15;69.75
57709;SHT35;42558;52.388;13.390;2022-09-21T16:41:34;14.05;70.99
57709;SHT35;42558;52.388;13.390;2022-09-21T16:44:12;13.96;71.87
57709;SHT35;42558;52.388;13.390;2022-09-21T16:46:51;13.86;72.76
57709;SHT35;42558;52.388;13.390;2022-09-21T16:49:28;13.83;73.41
57709;SHT35;42558;52.388;13.390;2022-09-21T16:52:00;13.83;73.55
57709;SHT35;42558;52.388;13.390;2022-09-21T16:54:27;13.76;73.68
57709;SHT35;42558;52.388;13.390;2022-09-21T16:56:56;13.68;74.03
57709;SHT35;42558;52.388;13.390;2022-09-21T16:59:25;13.62;74.47
57709;SHT35;42558;52.388;13.390;2022-09-21T17:01:54;13.54;74.83
57709;SHT35;42558;52.388;13.390;2022-09-21T17:04:27;13.43;75.33
57709;SHT35;42558;52.388;13.390;2022-09-21T17:06:56;13.36;75.70
57709;SHT35;42558;52.388;13.390;2022-09-21T17:09:25;13.28;75.92
57709;SHT35;42558;52.388;13.390;2022-09-21T17:12:08;13.20;76.16
57709;SHT35;42558;52.388;13.390;2022-09-21T17:14:40;13.10;76.52
57709;SHT35;42558;52.388;13.390;2022-09-21T17:17:16;13.10;76.35
57709;SHT35;42558;52.388;13.390;2022-09-21T17:19:48;13.03;76.28
57709;SHT35;42558;52.388;13.390;2022-09-21T17:22:17;12.95;76.81
57709;SHT35;42558;52.388;13.390;2022-09-21T17:24:45;12.89;76.84
57709;SHT35;42558;52.388;13.390;2022-09-21T17:27:18;12.85;76.96
57709;SHT35;42558;52.388;13.390;2022-09-21T17:29:49;12.80;77.04
57709;SHT35;42558;52.388;13.390;2022-09-21T17:32:19;12.73;77.37
57709;SHT35;42558;52.388;13.390;2022-09-21T17:37:47;12.60;77.64
57709;SHT35;42558;52.388;13.390;2022-09-21T17:40:14;12.54;77.73
57709;SHT35;42558;52.388;13.390;2022-09-21T17:42:41;12.49;77.76
57709;SHT35;42558;52.388;13.390;2022-09-21T17:47:44;12.35;77.89
57709;SHT35;42558;52.388;13.390;2022-09-21T17:52:38;12.26;78.09
57709;SHT35;42558;52.388;13.390;2022-09-21T17:55:26;12.18;78.02
57709;SHT35;42558;52.388;13.390;2022-09-21T18:03:27;11.99;78.37
57709;SHT35;42558;52.388;13.390;2022-09-21T18:05:57;11.94;78.28
57709;SHT35;42558;52.388;13.390;2022-09-21T18:08:29;11.91;78.67
57709;SHT35;42558;52.388;13.390;2022-09-21T18:11:05;11.89;78.61
57709;SHT35;42558;52.388;13.390;2022-09-21T18:22:55;11.56;78.90
57709;SHT35;42558;52.388;13.390;2022-09-21T18:25:39;11.49;79.11
57709;SHT35;42558;52.388;13.390;2022-09-21T18:28:31;11.43;79.19
57709;SHT35;42558;52.388;13.390;2022-09-21T18:31:27;11.37;79.56
57709;SHT35;42558;52.388;13.390;2022-09-21T18:34:29;11.34;79.62
57709;SHT35;42558;52.388;13.390;2022-09-21T18:41:06;11.19;79.61
57709;SHT35;42558;52.388;13.390;2022-09-21T18:47:19;11.02;79.90
57709;SHT35;42558;52.388;13.390;2022-09-21T18:50:01;10.91;79.87
57709;SHT35;42558;52.388;13.390;2022-09-21T18:56:11;10.79;80.66
57709;SHT35;42558;52.388;13.390;2022-09-21T18:58:39;10.76;80.62
57709;SHT35;42558;52.388;13.390;2022-09-21T19:01:11;10.73;80.41
57709;SHT35;42558;52.388;13.390;2022-09-21T19:03:41;10.68;80.43
57709;SHT35;42558;52.388;13.390;2022-09-21T19:18:14;10.35;80.96
57709;SHT35;42558;52.388;13.390;2022-09-21T19:24:04;10.28;80.73
57709;SHT35;42558;52.388;13.390;2022-09-21T19:29:33;10.14;81.37
57709;SHT35;42558;52.388;13.390;2022-09-21T19:37:46;10.04;81.89
57709;SHT35;42558;52.388;13.390;2022-09-21T19:40:15;10.03;81.67
57709;SHT35;42558;52.388;13.390;2022-09-21T19:42:59;10.05;81.65
57709;SHT35;42558;52.388;13.390;2022-09-21T19:46:09;10.02;81.17
57709;SHT35;42558;52.388;13.390;2022-09-21T19:49:03;9.96;81.33
57709;SHT35;42558;52.388;13.390;2022-09-21T19:51:48;9.93;81.25
57709;SHT35;42558;52.388;13.390;2022-09-21T19:54:18;9.92;81.33
57709;SHT35;42558;52.388;13.390;2022-09-21T19:57:19;9.86;81.20
57709;SHT35;42558;52.388;13.390;2022-09-21T20:00:07;9.78;81.20
57709;SHT35;42558;52.388;13.390;2022-09-21T20:02:40;9.74;81.76
57709;SHT35;42558;52.388;13.390;2022-09-21T20:08:22;9.69;81.84
57709;SHT35;42558;52.388;13.390;2022-09-21T20:11:01;9.67;81.96
57709;SHT35;42558;52.388;13.390;2022-09-21T20:22:10;9.57;81.92